Battle Ground, Indiana
Current Conditions -  °F | °C
As of 9:54 PM on Friday 19 Dec 2014 (Local Time) from KLAF Reporting Station
Haze Haze  
Wind Chill: -2°   Ceiling: 2600
Heat Index: -2°   Visibility: 6mi
Dew Point: -3°   Wind: 0mph
Humidity: 92%   Direction: NA
Pressure: 30.28"   Gusts: NA
Location:  40.51°N, 86.84°W
Report Text: KLAF 200254Z AUTO 00000KT 6SM BR OVC026 M02/M03 A3028 RMK AO2 SLP260 T10221033 58009 TSNO
Loading
Personal Weather Stations






























Interactive Weather Map New forecast layout! Learn more

10-Day Weather Forecast

Advertisements
Track Severe Weather on mobile